Time;durP1;ratioP1;P1;durP2;ratioP2;P2;SDS_P1;SDS_P2;PMS_P1;PMS_P2;Temp;Humidity;BMP_temperature;BMP_pressure;BME280_temperature;BME280_humidity;BME280_pressure;Samples;Min_cycle;Max_cycle;Signal;HPM_P1;HPM_P2
2024/01/27 00:00:09;;;;;;;43.13;25.70;;;5.30;88.10;;;;;;5077788;28;20227;-86
2024/01/27 00:02:35;;;;;;;44.50;28.07;;;5.30;88.10;;;;;;5095830;28;20178;-86
2024/01/27 00:05:00;;;;;;;37.23;25.87;;;5.30;88.10;;;;;;5077637;28;20190;-86
2024/01/27 00:07:27;;;;;;;45.77;26.63;;;5.30;88.00;;;;;;5077587;28;20224;-86
2024/01/27 00:09:53;;;;;;;36.63;25.90;;;5.30;87.90;;;;;;5096020;28;20163;-86
2024/01/27 00:12:19;;;;;;;45.60;27.93;;;5.40;87.90;;;;;;5095808;28;20182;-86
2024/01/27 00:14:44;;;;;;;42.83;26.27;;;5.40;87.70;;;;;;5077735;28;20701;-87
2024/01/27 00:17:10;;;;;;;46.47;27.23;;;5.40;87.90;;;;;;5077616;28;20281;-87
2024/01/27 00:19:36;;;;;;;46.90;27.00;;;5.40;88.00;;;;;;5095922;28;20754;-87
2024/01/27 00:22:02;;;;;;;43.50;25.27;;;5.40;88.00;;;;;;5077778;28;20552;-87
2024/01/27 00:24:27;;;;;;;39.50;25.97;;;5.40;88.20;;;;;;5077469;28;20568;-87
2024/01/27 00:26:53;;;;;;;44.23;26.37;;;5.40;88.40;;;;;;5095287;28;20202;-87
2024/01/27 00:29:19;;;;;;;38.53;24.83;;;5.40;88.40;;;;;;5077242;28;20536;-87
2024/01/27 00:31:44;;;;;;;39.47;27.27;;;5.40;88.50;;;;;;5095322;28;20167;-87
2024/01/27 00:34:10;;;;;;;50.37;26.57;;;5.40;88.70;;;;;;5095454;28;20198;-86
2024/01/27 00:36:36;;;;;;;39.00;16.03;;;5.50;88.80;;;;;;5078135;28;20260;-87
2024/01/27 00:39:03;;;;;;;44.97;17.23;;;5.50;88.70;;;;;;5077142;28;20170;-87
2024/01/27 00:41:28;;;;;;;39.63;16.53;;;5.40;88.80;;;;;;5095246;28;20204;-87
2024/01/27 00:43:54;;;;;;;44.03;17.43;;;5.40;89.00;;;;;;5077052;28;20171;-87
2024/01/27 00:46:20;;;;;;;44.20;17.00;;;5.50;89.20;;;;;;5076885;28;20220;-87
2024/01/27 00:48:45;;;;;;;39.83;15.50;;;5.50;89.10;;;;;;5077249;28;20175;-87
2024/01/27 00:51:11;;;;;;;39.63;16.03;;;5.60;89.10;;;;;;5095346;28;20239;-87
2024/01/27 00:53:36;;;;;;;36.97;15.93;;;5.50;89.10;;;;;;5095208;28;20178;-87
2024/01/27 00:56:02;;;;;;;38.03;15.77;;;5.60;89.10;;;;;;5095176;28;20201;-87
2024/01/27 00:58:28;;;;;;;36.00;15.83;;;5.50;89.10;;;;;;5077056;28;20179;-87
2024/01/27 01:00:53;;;;;;;46.77;16.03;;;5.60;89.20;;;;;;5094805;28;20234;-87
2024/01/27 01:03:19;;;;;;;46.60;17.87;;;5.60;89.10;;;;;;5094573;28;20246;-87
2024/01/27 01:05:44;;;;;;;43.07;16.33;;;5.50;89.20;;;;;;5094604;28;20194;-87
2024/01/27 01:08:10;;;;;;;48.53;18.47;;;5.50;89.30;;;;;;5076537;28;20197;-87
2024/01/27 01:10:35;;;;;;;41.70;15.20;;;5.60;89.20;;;;;;5076555;28;20217;-87
2024/01/27 01:13:01;;;;;;;40.37;15.83;;;5.60;89.10;;;;;;5076941;28;20703;-87
2024/01/27 01:15:26;;;;;;;38.30;15.63;;;5.60;88.90;;;;;;5076503;28;20257;-87
2024/01/27 01:17:52;;;;;;;40.20;16.40;;;5.70;88.80;;;;;;5076431;28;20244;-87
2024/01/27 01:20:17;;;;;;;42.30;16.23;;;5.70;88.40;;;;;;5076343;28;20258;-87
2024/01/27 01:22:43;;;;;;;44.67;16.50;;;5.80;88.00;;;;;;5094306;28;20254;-87
2024/01/27 01:25:08;;;;;;;37.23;16.13;;;5.70;88.20;;;;;;5094335;28;20193;-87
2024/01/27 01:27:34;;;;;;;45.07;17.37;;;5.70;88.30;;;;;;5094146;28;20590;-87
2024/01/27 01:29:59;;;;;;;33.30;16.13;;;5.70;88.50;;;;;;5076178;28;20175;-87
2024/01/27 01:32:25;;;;;;;41.20;15.63;;;5.70;88.50;;;;;;5076091;28;20181;-87
2024/01/27 01:34:50;;;;;;;30.80;15.23;;;5.60;88.70;;;;;;5094485;28;20183;-87
2024/01/27 01:37:16;;;;;;;43.67;15.83;;;5.60;89.00;;;;;;5076173;28;20639;-87
2024/01/27 01:39:41;;;;;;;41.63;16.63;;;5.60;89.10;;;;;;5076045;28;20257;-87
2024/01/27 01:42:07;;;;;;;35.27;16.10;;;5.50;89.20;;;;;;5075905;28;20181;-87
2024/01/27 01:44:32;;;;;;;51.40;17.13;;;5.40;89.30;;;;;;5094065;28;20548;-87
2024/01/27 01:46:58;;;;;;;40.03;17.13;;;5.40;89.40;;;;;;5075795;28;20217;-87
2024/01/27 01:49:24;;;;;;;45.03;17.13;;;5.30;89.50;;;;;;5075917;28;20216;-87
2024/01/27 01:51:50;;;;;;;40.90;17.03;;;5.30;89.60;;;;;;5076698;28;20227;-87
2024/01/27 01:54:15;;;;;;;58.67;29.37;;;5.20;89.70;;;;;;5075567;28;20175;-87
2024/01/27 01:56:42;;;;;;;48.60;27.47;;;5.20;89.90;;;;;;5075663;28;20198;-87
2024/01/27 01:59:08;;;;;;;48.00;26.47;;;5.10;90.00;;;;;;5075824;28;20221;-87
2024/01/27 02:01:33;;;;;;;37.60;25.30;;;5.10;90.20;;;;;;5075506;28;20202;-87
2024/01/27 02:03:59;;;;;;;50.20;26.67;;;5.10;90.30;;;;;;5075579;28;20284;-87
2024/01/27 02:06:24;;;;;;;42.43;24.67;;;5.00;90.40;;;;;;5075423;28;20305;-87
2024/01/27 02:08:50;;;;;;;44.50;24.43;;;5.00;90.50;;;;;;5075589;28;20242;-87
2024/01/27 02:11:17;;;;;;;52.83;24.27;;;4.90;90.60;;;;;;5093682;28;20182;-87
2024/01/27 02:13:43;;;;;;;56.37;25.30;;;4.90;90.60;;;;;;5075445;28;20717;-87
2024/01/27 02:16:08;;;;;;;56.40;25.60;;;4.80;90.70;;;;;;5093497;28;20194;-87
2024/01/27 02:18:34;;;;;;;44.27;24.70;;;4.80;90.90;;;;;;5075484;28;20681;-87
2024/01/27 02:21:00;;;;;;;49.90;24.73;;;4.80;90.90;;;;;;5094204;28;20258;-87
2024/01/27 02:23:25;;;;;;;39.47;23.97;;;4.80;91.00;;;;;;5093469;28;20185;-87
2024/01/27 02:25:51;;;;;;;56.07;25.47;;;4.70;91.10;;;;;;5075282;28;20202;-87
2024/01/27 02:28:17;;;;;;;43.90;24.30;;;4.70;91.20;;;;;;5075697;28;20178;-87
2024/01/27 02:30:43;;;;;;;45.33;23.03;;;4.70;91.30;;;;;;5093349;28;20185;-87
2024/01/27 02:33:08;;;;;;;39.07;23.03;;;4.70;91.30;;;;;;5075240;28;20178;-87
2024/01/27 02:35:34;;;;;;;46.47;21.73;;;4.60;91.40;;;;;;5075313;28;20587;-87
2024/01/27 02:38:00;;;;;;;52.90;24.20;;;4.60;91.50;;;;;;5075284;28;20190;-87
2024/01/27 02:40:25;;;;;;;45.37;25.00;;;4.60;91.50;;;;;;5075490;28;20171;-87
2024/01/27 02:42:51;;;;;;;45.87;22.53;;;4.60;91.60;;;;;;5075312;28;20227;-87
2024/01/27 02:45:16;;;;;;;44.93;13.80;;;4.60;91.60;;;;;;5075509;28;20234;-87
2024/01/27 02:47:42;;;;;;;35.53;13.47;;;4.60;91.60;;;;;;5075303;28;20306;-87
2024/01/27 02:50:08;;;;;;;43.07;13.77;;;4.50;91.70;;;;;;5093179;28;20249;-87
2024/01/27 02:52:34;;;;;;;43.33;14.10;;;4.50;91.70;;;;;;5093142;28;20171;-87
2024/01/27 02:55:00;;;;;;;37.43;13.33;;;4.50;91.90;;;;;;5075586;28;20182;-87
2024/01/27 02:57:25;;;;;;;27.33;11.23;;;4.50;91.90;;;;;;5075120;28;20202;-87
2024/01/27 02:59:51;;;;;;;42.30;12.70;;;4.50;92.00;;;;;;5075040;28;20173;-87
2024/01/27 03:02:16;;;;;;;41.87;13.03;;;4.50;91.90;;;;;;5093068;28;20181;-87
2024/01/27 03:04:42;;;;;;;47.87;14.33;;;4.40;92.00;;;;;;5075434;28;20684;-87
2024/01/27 03:07:07;;;;;;;45.33;15.13;;;4.40;92.10;;;;;;5092985;28;20299;-87
2024/01/27 03:09:33;;;;;;;40.57;12.00;;;4.50;92.20;;;;;;5074935;28;20185;-87
2024/01/27 03:11:59;;;;;;;50.47;13.90;;;4.40;92.10;;;;;;5077575;28;20192;-86
2024/01/27 03:14:25;;;;;;;48.83;14.77;;;4.40;92.20;;;;;;5096890;28;20171;-87
2024/01/27 03:16:50;;;;;;;42.30;11.73;;;4.40;92.20;;;;;;5078712;28;20217;-87
2024/01/27 03:19:16;;;;;;;55.07;13.43;;;4.40;92.20;;;;;;5079572;28;20202;-87
2024/01/27 03:21:41;;;;;;;43.80;12.70;;;4.40;92.30;;;;;;5078581;28;20609;-86
2024/01/27 03:24:07;;;;;;;38.27;12.43;;;4.30;92.30;;;;;;5096975;28;20225;-87
2024/01/27 03:26:33;;;;;;;35.50;12.57;;;4.30;92.40;;;;;;5079118;28;20620;-87
2024/01/27 03:28:59;;;;;;;43.03;12.67;;;4.30;92.30;;;;;;5096593;28;20584;-87
2024/01/27 03:31:33;;;;;;;27.57;12.23;;;4.40;92.40;;;;;;5096647;28;20174;-87
2024/01/27 03:34:00;;;;;;;37.90;14.17;;;4.30;92.40;;;;;;5078316;28;20161;-87
2024/01/27 03:36:26;;;;;;;46.43;13.73;;;4.30;92.50;;;;;;5078281;28;20688;-87
2024/01/27 03:38:51;;;;;;;29.03;11.80;;;4.30;92.50;;;;;;5078303;28;20181;-87
2024/01/27 03:41:17;;;;;;;38.77;11.67;;;4.30;92.50;;;;;;5096425;28;20175;-87
2024/01/27 03:43:42;;;;;;;47.80;13.67;;;4.30;92.50;;;;;;5078267;28;20183;-87
2024/01/27 03:46:08;;;;;;;37.83;14.43;;;4.30;92.60;;;;;;5079211;28;20214;-87
2024/01/27 03:48:35;;;;;;;41.07;14.30;;;4.30;92.60;;;;;;5096619;28;20664;-87
2024/01/27 03:51:01;;;;;;;45.13;12.73;;;4.30;92.60;;;;;;5078871;28;20178;-87
2024/01/27 03:53:26;;;;;;;52.20;14.17;;;4.30;92.60;;;;;;5078125;28;20186;-87
2024/01/27 03:55:52;;;;;;;42.53;13.27;;;4.40;92.60;;;;;;5078282;28;20170;-87
2024/01/27 03:58:18;;;;;;;43.03;13.57;;;4.40;92.50;;;;;;5078141;28;20257;-87
2024/01/27 04:00:43;;;;;;;49.87;12.63;;;4.30;92.50;;;;;;5078000;28;20282;-87
2024/01/27 04:03:09;;;;;;;36.33;12.53;;;4.30;92.40;;;;;;5077805;28;20182;-87
2024/01/27 04:05:36;;;;;;;39.47;11.87;;;4.30;92.60;;;;;;5096327;28;20676;-87
2024/01/27 04:08:01;;;;;;;65.03;20.57;;;4.30;92.60;;;;;;5077682;28;20203;-87
2024/01/27 04:10:27;;;;;;;58.13;20.03;;;4.30;92.60;;;;;;5077962;28;20264;-87
2024/01/27 04:12:52;;;;;;;47.07;19.40;;;4.30;92.60;;;;;;5077887;28;20223;-87
2024/01/27 04:15:18;;;;;;;43.33;18.87;;;4.30;92.60;;;;;;5077709;28;20176;-87
2024/01/27 04:17:44;;;;;;;42.63;20.73;;;4.20;92.70;;;;;;5077724;28;20193;-87
2024/01/27 04:20:10;;;;;;;52.67;18.03;;;4.20;92.70;;;;;;5077570;28;20600;-87
2024/01/27 04:22:36;;;;;;;42.67;18.93;;;4.30;92.80;;;;;;5076460;28;20180;-87
2024/01/27 04:25:03;;;;;;;37.83;17.73;;;4.20;92.80;;;;;;5077566;28;20177;-87
2024/01/27 04:27:29;;;;;;;57.20;21.43;;;4.20;92.90;;;;;;5095468;28;20288;-87
2024/01/27 04:29:54;;;;;;;44.83;17.97;;;4.20;92.90;;;;;;5095575;28;20586;-87
2024/01/27 04:32:21;;;;;;;49.77;17.87;;;4.20;92.90;;;;;;5078366;28;20198;-87
2024/01/27 04:34:47;;;;;;;45.70;19.07;;;4.10;92.90;;;;;;5095835;28;20167;-87
2024/01/27 04:37:12;;;;;;;41.50;17.27;;;4.20;93.00;;;;;;5095276;28;20197;-87
2024/01/27 04:39:38;;;;;;;41.10;17.63;;;4.20;92.90;;;;;;5077301;28;20522;-87
2024/01/27 04:42:06;;;;;;;34.03;17.70;;;4.10;92.90;;;;;;5077607;28;20199;-86
2024/01/27 04:44:31;;;;;;;46.73;17.00;;;4.00;93.00;;;;;;5095461;28;20214;-87
2024/01/27 04:46:57;;;;;;;40.90;17.63;;;4.00;93.10;;;;;;5077111;28;20212;-87
2024/01/27 04:49:22;;;;;;;37.47;17.20;;;3.90;93.20;;;;;;5077307;28;20587;-87
2024/01/27 04:51:48;;;;;;;29.87;10.77;;;3.90;93.20;;;;;;5095187;28;20641;-87
2024/01/27 04:54:13;;;;;;;36.43;9.50;;;3.90;93.30;;;;;;5095330;28;20180;-87
2024/01/27 04:56:39;;;;;;;38.67;10.27;;;3.80;93.30;;;;;;5077121;28;20305;-87
2024/01/27 04:59:04;;;;;;;32.87;10.20;;;3.80;93.40;;;;;;5078213;28;20184;-87
2024/01/27 05:01:32;;;;;;;28.33;10.20;;;3.80;93.50;;;;;;5076945;28;20561;-86
2024/01/27 05:03:57;;;;;;;51.23;13.03;;;3.80;93.60;;;;;;5095239;28;20195;-87
2024/01/27 05:06:23;;;;;;;38.30;9.60;;;3.80;93.50;;;;;;5076844;28;20219;-87
2024/01/27 05:08:48;;;;;;;25.33;8.57;;;3.80;93.50;;;;;;5094958;28;20533;-87
2024/01/27 05:11:15;;;;;;;36.33;9.90;;;3.80;93.50;;;;;;5076913;28;20209;-87
2024/01/27 05:13:41;;;;;;;37.37;10.97;;;3.80;93.50;;;;;;5094882;28;20256;-87
2024/01/27 05:16:06;;;;;;;33.57;10.00;;;3.80;93.60;;;;;;5076581;28;20259;-86
2024/01/27 05:18:32;;;;;;;40.93;10.20;;;3.70;93.60;;;;;;5076819;28;20182;-87
2024/01/27 05:20:57;;;;;;;30.13;10.27;;;3.70;93.60;;;;;;5076669;28;20641;-87
2024/01/27 05:23:23;;;;;;;49.30;10.60;;;3.80;93.60;;;;;;5094656;28;20290;-87
2024/01/27 05:25:49;;;;;;;42.97;12.30;;;3.70;93.70;;;;;;5076186;28;20184;-87
2024/01/27 05:28:14;;;;;;;34.07;9.87;;;3.70;93.70;;;;;;5076564;28;20181;-87
2024/01/27 05:30:40;;;;;;;33.80;9.50;;;3.80;93.70;;;;;;5076761;28;20187;-86
2024/01/27 05:33:05;;;;;;;40.00;9.93;;;3.70;93.70;;;;;;5076168;28;20176;-87
2024/01/27 05:35:31;;;;;;;37.40;10.67;;;3.60;93.70;;;;;;5093960;28;20204;-87
2024/01/27 05:37:57;;;;;;;37.53;10.00;;;3.60;93.80;;;;;;5076267;28;20206;-87
2024/01/27 05:40:22;;;;;;;34.43;10.17;;;3.60;93.90;;;;;;5076075;28;20284;-87
2024/01/27 05:42:49;;;;;;;35.90;9.97;;;3.50;93.90;;;;;;5075880;28;20182;-87
2024/01/27 05:45:14;;;;;;;33.20;10.07;;;3.60;93.90;;;;;;5076266;28;20174;-87
2024/01/27 05:47:41;;;;;;;47.10;10.73;;;3.60;93.90;;;;;;5075747;28;20288;-86
2024/01/27 05:50:07;;;;;;;43.37;10.87;;;3.60;93.90;;;;;;5093945;28;20703;-87
2024/01/27 05:52:33;;;;;;;35.47;10.20;;;3.50;93.90;;;;;;5075899;28;20170;-86
2024/01/27 05:54:59;;;;;;;38.77;10.10;;;3.50;93.90;;;;;;5076003;28;20218;-87
2024/01/27 05:57:24;;;;;;;32.40;8.77;;;3.50;94.00;;;;;;5075532;28;20200;-87
2024/01/27 05:59:50;;;;;;;54.40;10.50;;;3.40;94.00;;;;;;5075633;28;20183;-86
2024/01/27 06:02:17;;;;;;;35.93;10.03;;;3.50;94.00;;;;;;5093771;28;20195;-90
2024/01/27 06:04:43;;;;;;;39.97;11.97;;;3.40;94.00;;;;;;5075514;28;20222;-87
2024/01/27 06:07:08;;;;;;;43.70;11.07;;;3.50;94.00;;;;;;5075334;28;20645;-89
2024/01/27 06:09:34;;;;;;;42.93;10.13;;;3.50;94.00;;;;;;5077397;28;20173;-86
2024/01/27 06:12:03;;;;;;;44.90;11.97;;;3.50;93.90;;;;;;5075438;28;20198;-86
2024/01/27 06:14:28;;;;;;;42.00;10.60;;;3.40;94.00;;;;;;5075532;28;20269;-86
2024/01/27 06:16:54;;;;;;;59.97;19.10;;;3.40;94.00;;;;;;5075423;28;20288;-86
2024/01/27 06:19:19;;;;;;;45.07;19.10;;;3.40;93.90;;;;;;5075792;28;20201;-86
2024/01/27 06:21:45;;;;;;;48.30;19.33;;;3.40;94.00;;;;;;5074985;28;20449;-86
2024/01/27 06:24:10;;;;;;;53.07;19.90;;;3.50;94.00;;;;;;5075383;28;20223;-86
2024/01/27 06:26:37;;;;;;;47.30;18.83;;;3.50;93.90;;;;;;5075416;28;20449;-86
2024/01/27 06:29:04;;;;;;;49.17;17.93;;;3.50;93.90;;;;;;5075819;28;20177;-86
2024/01/27 06:31:29;;;;;;;42.87;11.80;;;3.50;93.90;;;;;;5075408;28;20602;-86
2024/01/27 06:33:55;;;;;;;29.57;12.80;;;3.40;93.90;;;;;;5075184;28;20209;-86
2024/01/27 06:36:24;;;;;;;37.83;15.67;;;3.50;93.90;;;;;;5075045;28;20204;-86
2024/01/27 06:38:50;;;;;;;47.53;17.50;;;3.40;93.80;;;;;;5075169;28;20184;-86
2024/01/27 06:41:16;;;;;;;54.10;19.30;;;3.50;93.80;;;;;;5075298;28;20316;-88
2024/01/27 06:43:42;;;;;;;36.10;17.07;;;3.50;93.80;;;;;;5075759;28;20271;-88
2024/01/27 06:46:07;;;;;;;41.80;16.93;;;3.40;93.70;;;;;;5076505;28;20316;-86
2024/01/27 06:48:33;;;;;;;49.23;16.40;;;3.40;93.70;;;;;;5097496;28;20200;-87
2024/01/27 06:50:59;;;;;;;45.53;16.60;;;3.50;93.70;;;;;;5079206;28;20254;-89
2024/01/27 06:53:24;;;;;;;47.77;17.93;;;3.40;93.70;;;;;;5097284;28;20171;-87
2024/01/27 06:55:50;;;;;;;38.73;17.43;;;3.40;93.70;;;;;;5079187;28;20176;-86
2024/01/27 06:58:15;;;;;;;37.43;17.70;;;3.40;93.70;;;;;;5079294;28;20169;-89
2024/01/27 07:00:41;;;;;;;34.10;16.97;;;3.40;93.70;;;;;;5079101;28;20663;-86
2024/01/27 07:03:06;;;;;;;39.73;17.83;;;3.20;93.60;;;;;;5079011;28;20196;-86
2024/01/27 07:05:38;;;;;;;43.20;16.90;;;3.30;93.70;;;;;;5078853;28;20246;-86
2024/01/27 07:08:05;;;;;;;41.70;15.23;;;3.30;93.70;;;;;;5097034;28;20577;-86
2024/01/27 07:10:31;;;;;;;43.73;16.40;;;3.30;93.70;;;;;;5078932;28;20715;-86
2024/01/27 07:12:56;;;;;;;43.53;15.53;;;3.30;93.60;;;;;;5078807;28;20175;-86
2024/01/27 07:15:23;;;;;;;36.67;14.97;;;3.30;93.70;;;;;;5078730;28;20265;-87
2024/01/27 07:17:49;;;;;;;35.60;15.10;;;3.30;93.60;;;;;;5078741;28;20227;-87
2024/01/27 07:20:14;;;;;;;37.77;11.07;;;3.30;93.60;;;;;;5079753;28;20178;-88
2024/01/27 07:22:40;;;;;;;42.53;12.07;;;3.30;93.60;;;;;;5096948;28;20204;-89
2024/01/27 07:25:07;;;;;;;32.40;10.63;;;3.20;93.60;;;;;;5078639;28;20178;-88
2024/01/27 07:27:32;;;;;;;37.13;11.17;;;3.30;93.60;;;;;;5078661;28;20723;-89
2024/01/27 07:29:58;;;;;;;31.53;12.03;;;3.20;93.60;;;;;;5078773;28;20173;-86
2024/01/27 07:32:24;;;;;;;32.13;10.80;;;3.20;93.60;;;;;;5078337;28;20173;-86
2024/01/27 07:34:50;;;;;;;33.83;11.30;;;3.20;93.60;;;;;;5078466;28;20181;-86
2024/01/27 07:37:15;;;;;;;24.77;9.83;;;3.20;93.60;;;;;;5078907;28;20318;-85
2024/01/27 07:39:41;;;;;;;35.17;11.27;;;3.20;93.60;;;;;;5081172;28;20178;-91
2024/01/27 07:42:07;;;;;;;44.30;12.87;;;3.20;93.60;;;;;;5079674;28;20176;-86
2024/01/27 07:44:32;;;;;;;40.43;11.50;;;3.20;93.60;;;;;;5078349;28;20667;-86
2024/01/27 07:46:58;;;;;;;36.90;10.97;;;3.20;93.60;;;;;;5096363;28;20213;-87
2024/01/27 07:49:23;;;;;;;22.47;10.13;;;3.20;93.50;;;;;;5096834;28;20174;-87
2024/01/27 07:51:49;;;;;;;34.23;11.60;;;3.20;93.50;;;;;;5078140;28;20174;-86
2024/01/27 07:54:14;;;;;;;32.47;10.97;;;3.20;93.50;;;;;;5078069;28;20172;-86
2024/01/27 07:56:41;;;;;;;43.73;12.60;;;3.20;93.50;;;;;;5077920;28;20741;-86
2024/01/27 07:59:13;;;;;;;26.17;11.53;;;3.30;93.50;;;;;;5077993;28;20172;-86
2024/01/27 08:01:39;;;;;;;24.37;10.20;;;3.20;93.50;;;;;;5077909;28;20191;-86
2024/01/27 08:04:05;;;;;;;30.03;11.20;;;3.30;93.40;;;;;;5077773;28;20558;-86
2024/01/27 08:06:30;;;;;;;43.47;12.43;;;3.30;93.40;;;;;;5077722;28;20203;-86
2024/01/27 08:08:56;;;;;;;17.30;8.20;;;3.30;93.40;;;;;;5077762;28;20179;-86
2024/01/27 08:11:21;;;;;;;41.07;11.63;;;3.30;93.40;;;;;;5077559;28;20167;-86
2024/01/27 08:13:47;;;;;;;24.77;10.93;;;3.30;93.40;;;;;;5077612;28;20182;-86
2024/01/27 08:16:13;;;;;;;32.67;11.93;;;3.30;93.40;;;;;;5077683;28;20217;-86
2024/01/27 08:18:42;;;;;;;33.20;11.27;;;3.30;93.30;;;;;;5095991;28;20172;-86
2024/01/27 08:21:08;;;;;;;41.60;11.70;;;3.40;93.10;;;;;;5078437;28;20183;-86
2024/01/27 08:23:33;;;;;;;34.90;11.10;;;3.40;93.00;;;;;;5077571;28;20267;-86
2024/01/27 08:25:59;;;;;;;30.43;10.97;;;3.50;92.90;;;;;;5095663;28;20173;-87
2024/01/27 08:28:24;;;;;;;33.53;10.60;;;3.50;92.90;;;;;;5077296;28;20243;-86
2024/01/27 08:30:50;;;;;;;28.97;11.17;;;3.50;92.80;;;;;;5095700;28;20179;-86
2024/01/27 08:33:15;;;;;;;35.73;11.93;;;3.50;92.80;;;;;;5095807;28;20172;-86
2024/01/27 08:35:41;;;;;;;27.90;12.17;;;3.60;92.70;;;;;;5077307;28;20716;-86
2024/01/27 08:38:08;;;;;;;33.80;12.90;;;3.60;92.70;;;;;;5077263;28;20721;-87
2024/01/27 08:40:34;;;;;;;27.00;11.53;;;3.60;92.70;;;;;;5077231;28;20675;-86
2024/01/27 08:42:59;;;;;;;26.60;16.40;;;3.60;92.60;;;;;;5095216;28;20177;-86
2024/01/27 08:45:26;;;;;;;33.43;16.97;;;3.70;92.60;;;;;;5077062;28;20272;-86
2024/01/27 08:47:51;;;;;;;29.40;16.60;;;3.70;92.50;;;;;;5077277;28;20594;-87
2024/01/27 08:50:17;;;;;;;34.00;17.63;;;3.80;92.40;;;;;;5077061;28;20182;-87
2024/01/27 08:52:42;;;;;;;32.13;16.17;;;3.80;92.40;;;;;;5077047;28;20194;-86
2024/01/27 08:55:08;;;;;;;31.30;17.83;;;3.80;92.40;;;;;;5077084;28;20546;-87
2024/01/27 08:57:33;;;;;;;26.70;11.53;;;3.80;92.40;;;;;;5095256;28;20199;-86
2024/01/27 08:59:59;;;;;;;31.37;17.10;;;3.90;92.30;;;;;;5094903;28;20179;-86
2024/01/27 09:02:25;;;;;;;31.50;16.63;;;3.90;92.30;;;;;;5076792;28;20177;-87
2024/01/27 09:04:50;;;;;;;41.17;18.07;;;3.90;92.30;;;;;;5076530;28;20214;-87
2024/01/27 09:07:17;;;;;;;27.37;16.37;;;4.00;92.20;;;;;;5095101;28;20198;-86
2024/01/27 09:09:43;;;;;;;27.43;15.87;;;4.00;92.10;;;;;;5076373;28;20674;-87
2024/01/27 09:12:08;;;;;;;46.03;17.67;;;4.10;92.10;;;;;;5076562;28;20170;-87
2024/01/27 09:14:34;;;;;;;23.97;15.73;;;4.10;92.10;;;;;;5076545;28;20177;-87
2024/01/27 09:17:02;;;;;;;23.57;15.13;;;4.10;92.00;;;;;;5076388;28;20250;-87
2024/01/27 09:19:28;;;;;;;29.30;15.57;;;4.10;92.20;;;;;;5076321;28;20182;-87
2024/01/27 09:21:54;;;;;;;28.50;16.77;;;4.20;92.10;;;;;;5077135;28;20634;-87
2024/01/27 09:24:20;;;;;;;34.27;17.00;;;4.20;92.10;;;;;;5076387;28;20174;-86
2024/01/27 09:26:45;;;;;;;26.63;16.07;;;4.30;92.00;;;;;;5076097;28;20216;-86
2024/01/27 09:29:11;;;;;;;29.40;17.13;;;4.30;91.70;;;;;;5076176;28;20636;-87
2024/01/27 09:31:36;;;;;;;29.43;16.67;;;4.40;91.50;;;;;;5076130;28;20282;-86
2024/01/27 09:34:02;;;;;;;26.90;15.97;;;4.50;91.30;;;;;;5076182;28;20173;-86
2024/01/27 09:36:28;;;;;;;30.13;17.23;;;4.50;91.30;;;;;;5075935;28;20280;-86
2024/01/27 09:38:54;;;;;;;32.50;17.73;;;4.60;91.10;;;;;;5076324;28;20177;-87
2024/01/27 09:41:20;;;;;;;28.53;16.47;;;4.60;91.10;;;;;;5094222;28;20181;-86
2024/01/27 09:43:47;;;;;;;23.97;16.60;;;4.70;91.10;;;;;;5075998;28;20178;-87
2024/01/27 09:46:14;;;;;;;25.17;16.10;;;4.80;90.80;;;;;;5075914;28;20288;-86
2024/01/27 09:48:40;;;;;;;24.07;16.87;;;4.80;90.50;;;;;;5075832;28;20171;-86
2024/01/27 09:51:08;;;;;;;29.53;18.90;;;4.90;90.40;;;;;;5076577;28;20180;-87
2024/01/27 09:53:35;;;;;;;27.90;19.13;;;5.00;90.20;;;;;;5075700;28;20167;-87
2024/01/27 09:56:04;;;;;;;24.83;19.70;;;5.00;89.90;;;;;;5093804;28;20161;-86
2024/01/27 09:58:31;;;;;;;30.57;19.27;;;5.00;89.90;;;;;;5075764;28;20182;-87
2024/01/27 10:00:58;;;;;;;23.23;18.83;;;5.10;89.90;;;;;;5093848;28;20647;-86
2024/01/27 10:03:25;;;;;;;35.03;21.00;;;5.20;89.80;;;;;;5075690;28;20193;-86
2024/01/27 10:05:53;;;;;;;36.83;21.00;;;5.30;89.60;;;;;;5075642;28;20166;-87
2024/01/27 10:08:18;;;;;;;37.87;21.10;;;5.30;89.50;;;;;;5075646;28;20641;-86
2024/01/27 10:10:44;;;;;;;27.77;20.97;;;5.30;89.40;;;;;;5093705;28;20172;-86
2024/01/27 10:13:13;;;;;;;20.50;14.00;;;5.40;89.60;;;;;;5075670;28;20170;-86
2024/01/27 10:15:39;;;;;;;38.30;16.27;;;5.40;89.10;;;;;;5075581;28;20175;-86
2024/01/27 10:18:06;;;;;;;29.47;14.47;;;5.40;89.20;;;;;;5075662;28;20212;-86
2024/01/27 10:20:32;;;;;;;33.70;15.67;;;5.50;89.10;;;;;;5074539;28;20174;-86
2024/01/27 10:22:57;;;;;;;37.00;14.83;;;5.50;88.90;;;;;;5075426;28;20608;-86
2024/01/27 10:25:23;;;;;;;25.63;14.50;;;5.50;89.10;;;;;;5093426;28;20196;-86
2024/01/27 10:27:49;;;;;;;27.33;14.83;;;5.60;89.20;;;;;;5075268;28;20222;-86
2024/01/27 10:30:19;;;;;;;26.63;15.03;;;5.70;89.10;;;;;;5075347;28;20171;-87
2024/01/27 10:32:55;;;;;;;23.80;14.73;;;5.70;89.00;;;;;;5075452;28;20523;-86
2024/01/27 10:35:21;;;;;;;37.83;16.40;;;5.70;88.50;;;;;;5075271;28;20173;-86
2024/01/27 10:37:51;;;;;;;19.43;14.17;;;5.80;88.40;;;;;;5093228;28;20239;-86
2024/01/27 10:40:17;;;;;;;29.07;15.70;;;5.80;88.50;;;;;;5093304;28;20175;-86
2024/01/27 10:42:44;;;;;;;32.43;17.60;;;5.90;88.40;;;;;;5093607;28;20174;-86
2024/01/27 10:45:11;;;;;;;32.33;17.00;;;5.90;88.30;;;;;;5075073;28;20246;-86
2024/01/27 10:47:38;;;;;;;25.27;16.47;;;5.90;88.10;;;;;;5074954;28;20207;-87
2024/01/27 10:50:09;;;;;;;26.80;15.80;;;6.00;87.80;;;;;;5075694;28;20181;-87
2024/01/27 10:52:41;;;;;;;31.27;16.23;;;6.00;87.80;;;;;;5076068;28;20158;-86
2024/01/27 10:55:09;;;;;;;27.83;16.40;;;6.20;88.20;;;;;;5075147;28;20171;-86
2024/01/27 10:57:36;;;;;;;29.87;16.37;;;6.20;87.70;;;;;;5074937;28;20190;-87
2024/01/27 11:00:06;;;;;;;21.90;16.17;;;6.30;87.80;;;;;;5075372;28;20210;-87
2024/01/27 11:02:33;;;;;;;27.10;15.67;;;6.40;88.00;;;;;;5075183;28;20557;-87
2024/01/27 11:05:01;;;;;;;25.10;16.43;;;6.40;87.90;;;;;;5074900;28;20194;-87
2024/01/27 11:07:28;;;;;;;35.77;17.30;;;6.50;87.60;;;;;;5092887;28;20289;-87
2024/01/27 11:09:53;;;;;;;30.43;17.33;;;6.50;87.50;;;;;;5092936;28;20168;-87
2024/01/27 11:12:22;;;;;;;33.40;17.13;;;6.50;87.50;;;;;;5074919;28;20175;-87
2024/01/27 11:14:48;;;;;;;23.27;17.17;;;6.50;87.60;;;;;;5074853;28;20658;-87
2024/01/27 11:17:16;;;;;;;25.97;16.87;;;6.60;87.00;;;;;;5092883;28;20739;-87
2024/01/27 11:19:41;;;;;;;27.13;16.70;;;6.60;87.20;;;;;;5074752;28;20175;-86
2024/01/27 11:22:07;;;;;;;32.40;18.07;;;6.80;87.30;;;;;;5092899;28;20187;-87
2024/01/27 11:24:33;;;;;;;35.43;17.73;;;6.80;87.00;;;;;;5074757;28;20186;-87
2024/01/27 11:27:02;;;;;;;35.13;18.50;;;6.90;86.90;;;;;;5074718;28;20289;-86
2024/01/27 11:29:29;;;;;;;32.87;19.50;;;6.90;86.50;;;;;;5075499;28;20269;-87
2024/01/27 11:31:56;;;;;;;40.17;19.27;;;6.90;86.40;;;;;;5075659;28;20175;-87
2024/01/27 11:34:21;;;;;;;24.23;17.80;;;7.00;86.90;;;;;;5078483;28;20178;-87
2024/01/27 11:36:47;;;;;;;29.07;19.23;;;7.00;86.40;;;;;;5096475;28;20198;-87
2024/01/27 11:39:24;;;;;;;24.47;19.77;;;7.00;86.30;;;;;;5078504;28;20210;-87
2024/01/27 11:41:50;;;;;;;31.63;20.03;;;7.00;86.00;;;;;;5096678;28;20261;-86
2024/01/27 11:44:17;;;;;;;25.27;18.07;;;7.00;85.40;;;;;;5096544;28;20278;-86
2024/01/27 11:46:45;;;;;;;21.93;18.60;;;7.00;85.60;;;;;;5078996;28;20206;-86
2024/01/27 11:49:16;;;;;;;29.67;19.07;;;7.00;85.20;;;;;;5096329;28;20174;-87
2024/01/27 11:51:42;;;;;;;21.57;17.03;;;7.10;85.60;;;;;;5078443;28;20171;-87
2024/01/27 11:54:07;;;;;;;29.53;18.17;;;7.10;85.10;;;;;;5078028;28;20194;-86
2024/01/27 11:56:32;;;;;;;28.00;17.80;;;7.20;85.30;;;;;;5078028;28;20195;-86
2024/01/27 11:58:58;;;;;;;27.20;18.60;;;7.10;85.10;;;;;;5078051;28;20174;-87
2024/01/27 12:01:24;;;;;;;37.20;20.27;;;7.20;85.30;;;;;;5078816;28;20661;-87
2024/01/27 12:03:49;;;;;;;28.53;18.67;;;7.30;85.00;;;;;;5077893;28;20197;-87
2024/01/27 12:06:15;;;;;;;28.07;19.40;;;7.30;84.60;;;;;;5078125;28;20210;-87
2024/01/27 12:08:46;;;;;;;23.97;21.47;;;7.30;85.10;;;;;;5078471;28;20171;-86
2024/01/27 12:11:13;;;;;;;29.30;21.50;;;7.30;84.30;;;;;;5096211;28;20147;-87
2024/01/27 12:13:38;;;;;;;29.60;21.53;;;7.50;84.60;;;;;;5095876;28;20643;-86
2024/01/27 12:16:05;;;;;;;30.80;20.87;;;7.50;84.00;;;;;;5078363;28;20201;-87
2024/01/27 12:18:30;;;;;;;33.10;21.57;;;7.40;84.00;;;;;;5095745;28;20171;-87
2024/01/27 12:20:57;;;;;;;27.57;21.20;;;7.50;84.30;;;;;;5078498;28;20174;-87
2024/01/27 12:23:23;;;;;;;31.73;22.53;;;7.60;84.10;;;;;;5077823;28;20177;-87
2024/01/27 12:25:55;;;;;;;39.27;35.17;;;7.50;83.50;;;;;;5077713;28;20262;-86
2024/01/27 12:28:23;;;;;;;32.33;29.83;;;7.60;83.70;;;;;;5077656;28;20175;-87
2024/01/27 12:30:52;;;;;;;35.30;31.60;;;7.70;83.40;;;;;;5077571;28;20182;-86